Time;durP1;ratioP1;P1;durP2;ratioP2;P2;SDS_P1;SDS_P2;PMS_P1;PMS_P2;Temp;Humidity;BMP_temperature;BMP_pressure;BME280_temperature;BME280_humidity;BME280_pressure;Samples;Min_cycle;Max_cycle;Signal;HPM_P1;HPM_P2
2021/05/20 00:00:09;;;;;;;0.40;0.40;;;15.10;83.90;;;;;;5028080;28;20183;-74
2021/05/20 00:02:36;;;;;;;1.42;0.50;;;15.10;84.10;;;;;;5024692;28;20204;-74
2021/05/20 00:05:02;;;;;;;0.68;0.60;;;15.10;84.00;;;;;;5027161;28;20180;-74
2021/05/20 00:07:28;;;;;;;1.52;0.55;;;15.10;84.20;;;;;;5027491;28;20279;-75
2021/05/20 00:09:53;;;;;;;4.63;0.50;;;15.10;84.40;;;;;;5028670;28;20263;-74
2021/05/20 00:12:19;;;;;;;0.82;0.50;;;15.10;84.60;;;;;;5027314;28;20279;-75
2021/05/20 00:14:45;;;;;;;0.60;0.40;;;15.10;84.90;;;;;;5025899;28;20642;-74
2021/05/20 00:17:11;;;;;;;11.00;0.77;;;15.00;85.90;;;;;;5028196;28;20222;-76
2021/05/20 00:19:37;;;;;;;0.50;0.47;;;14.90;85.80;;;;;;5025868;28;20271;-75
2021/05/20 00:22:03;;;;;;;0.93;0.50;;;14.90;86.40;;;;;;5027672;28;20184;-74
2021/05/20 00:24:29;;;;;;;1.92;0.60;;;14.90;87.30;;;;;;5028427;28;20242;-73
2021/05/20 00:26:55;;;;;;;0.75;0.40;;;14.80;87.80;;;;;;5026608;28;20912;-75
2021/05/20 00:29:20;;;;;;;2.60;0.70;;;14.80;87.80;;;;;;5025100;28;20564;-76
2021/05/20 00:31:46;;;;;;;0.47;0.47;;;14.80;87.90;;;;;;5023922;28;20184;-74
2021/05/20 00:34:12;;;;;;;6.15;0.70;;;14.70;88.00;;;;;;5027360;28;20624;-74
2021/05/20 00:36:37;;;;;;;0.57;0.43;;;14.70;88.10;;;;;;5025807;28;20195;-74
2021/05/20 00:39:04;;;;;;;3.45;0.52;;;14.70;87.90;;;;;;5023845;28;20188;-74
2021/05/20 00:41:30;;;;;;;1.23;0.40;;;14.70;87.50;;;;;;5026875;28;20172;-75
2021/05/20 00:43:55;;;;;;;0.47;0.47;;;14.70;87.60;;;;;;5025446;28;20184;-74
2021/05/20 00:46:21;;;;;;;0.98;0.50;;;14.70;88.00;;;;;;5024823;28;20186;-74
2021/05/20 00:48:47;;;;;;;0.68;0.45;;;14.70;88.50;;;;;;5027289;28;20173;-74
2021/05/20 00:51:13;;;;;;;1.33;0.77;;;14.60;88.70;;;;;;5026321;28;20173;-75
2021/05/20 00:53:39;;;;;;;1.70;0.60;;;14.60;88.60;;;;;;5026641;28;20184;-75
2021/05/20 00:56:07;;;;;;;1.67;0.90;;;14.60;88.30;;;;;;5016794;28;20199;-75
2021/05/20 00:58:32;;;;;;;0.50;0.50;;;14.60;88.40;;;;;;5025219;28;20219;-75
2021/05/20 01:00:59;;;;;;;0.43;0.43;;;14.50;88.40;;;;;;5025509;28;20657;-75
2021/05/20 01:03:25;;;;;;;0.90;0.73;;;14.50;88.20;;;;;;5023873;28;20189;-75
2021/05/20 01:05:56;;;;;;;2.25;0.68;;;14.50;89.20;;;;;;5025801;28;20234;-74
2021/05/20 01:08:22;;;;;;;1.38;0.40;;;14.50;89.50;;;;;;5027554;28;20180;-74
2021/05/20 01:10:51;;;;;;;4.03;0.90;;;14.50;89.70;;;;;;5026817;28;20185;-76
2021/05/20 01:13:17;;;;;;;1.30;0.50;;;14.50;89.80;;;;;;5026601;28;20199;-75
2021/05/20 01:15:43;;;;;;;1.65;0.60;;;14.50;90.00;;;;;;5026923;28;20190;-75
2021/05/20 01:18:10;;;;;;;0.50;0.50;;;14.50;90.70;;;;;;5025966;28;20250;-75
2021/05/20 01:20:38;;;;;;;1.95;0.50;;;14.50;89.50;;;;;;5024973;28;20207;-75
2021/05/20 01:23:08;;;;;;;3.50;0.85;;;14.40;89.40;;;;;;5026122;28;20192;-75
2021/05/20 01:25:35;;;;;;;1.75;0.40;;;14.40;90.10;;;;;;5026283;28;20630;-75
2021/05/20 01:28:04;;;;;;;1.08;0.50;;;14.40;89.90;;;;;;5018069;28;20654;-75
2021/05/20 01:30:31;;;;;;;4.43;0.60;;;14.40;90.20;;;;;;5023107;28;20177;-75
2021/05/20 01:32:57;;;;;;;0.90;0.45;;;14.30;90.20;;;;;;5021580;28;20268;-75
2021/05/20 01:35:23;;;;;;;0.50;0.50;;;14.30;90.10;;;;;;5026508;28;20631;-75
2021/05/20 01:37:49;;;;;;;1.48;0.57;;;14.20;90.20;;;;;;5020115;28;20867;-75
2021/05/20 01:40:16;;;;;;;0.45;0.45;;;14.20;90.20;;;;;;5026539;28;20259;-75
2021/05/20 01:42:42;;;;;;;2.30;0.60;;;14.10;90.20;;;;;;5026288;28;20196;-77
2021/05/20 01:45:08;;;;;;;0.93;0.60;;;14.00;90.70;;;;;;5027781;28;20180;-77
2021/05/20 01:47:38;;;;;;;1.23;0.50;;;13.90;91.40;;;;;;5024930;28;20207;-77
2021/05/20 01:50:04;;;;;;;1.00;0.80;;;13.80;91.10;;;;;;5027550;28;20206;-76
2021/05/20 01:52:30;;;;;;;0.30;0.30;;;13.80;91.90;;;;;;5023048;28;20727;-76
2021/05/20 01:54:57;;;;;;;1.23;0.63;;;13.70;92.40;;;;;;5027182;28;20259;-77
2021/05/20 01:57:23;;;;;;;0.82;0.60;;;13.60;92.10;;;;;;5023007;28;20631;-77
2021/05/20 01:59:48;;;;;;;1.25;0.50;;;13.60;92.60;;;;;;5024338;28;20207;-76
2021/05/20 02:02:14;;;;;;;0.75;0.50;;;13.50;92.70;;;;;;5018634;28;20268;-76
2021/05/20 02:04:40;;;;;;;1.67;0.50;;;13.40;93.50;;;;;;5025276;28;20273;-76
2021/05/20 02:07:05;;;;;;;0.50;0.50;;;13.40;92.90;;;;;;5029899;28;20581;-77
2021/05/20 02:09:31;;;;;;;1.77;0.63;;;13.40;93.00;;;;;;5025432;28;20185;-74
2021/05/20 02:11:57;;;;;;;2.03;0.30;;;13.40;93.00;;;;;;5026606;28;20188;-78
2021/05/20 02:14:22;;;;;;;0.52;0.40;;;13.40;93.00;;;;;;5030159;28;20180;-77
2021/05/20 02:16:48;;;;;;;1.35;0.47;;;13.40;93.00;;;;;;5029934;28;20604;-77
2021/05/20 02:19:14;;;;;;;0.47;0.47;;;13.40;93.20;;;;;;5026100;28;20574;-77
2021/05/20 02:21:39;;;;;;;1.60;0.68;;;13.40;93.10;;;;;;5023346;28;20189;-76
2021/05/20 02:24:06;;;;;;;2.05;0.60;;;13.40;93.30;;;;;;5029104;28;20180;-76
2021/05/20 02:26:32;;;;;;;2.08;0.60;;;13.40;93.40;;;;;;5026403;28;20776;-77
2021/05/20 02:28:59;;;;;;;0.65;0.65;;;13.40;93.30;;;;;;5027805;28;20185;-75
2021/05/20 02:31:25;;;;;;;1.58;0.60;;;13.40;92.90;;;;;;5030384;28;20219;-76
2021/05/20 02:33:50;;;;;;;0.43;0.40;;;13.40;93.10;;;;;;5028267;28;20227;-78
2021/05/20 02:36:16;;;;;;;2.70;0.60;;;13.40;93.10;;;;;;5029640;28;20196;-77
2021/05/20 02:38:42;;;;;;;2.30;0.45;;;13.40;93.20;;;;;;5028952;28;20228;-74
2021/05/20 02:41:07;;;;;;;1.17;0.70;;;13.40;93.00;;;;;;5029275;28;20192;-77
2021/05/20 02:43:33;;;;;;;0.82;0.82;;;13.40;93.10;;;;;;5026586;28;20279;-78
2021/05/20 02:46:00;;;;;;;0.65;0.57;;;13.40;93.00;;;;;;5030388;28;20215;-77
2021/05/20 02:48:26;;;;;;;0.93;0.60;;;13.40;93.30;;;;;;5030150;28;20255;-75
2021/05/20 02:50:52;;;;;;;2.05;0.57;;;13.30;93.70;;;;;;5031795;28;20225;-76
2021/05/20 02:53:18;;;;;;;3.08;0.70;;;13.30;93.70;;;;;;5029352;28;20187;-78
2021/05/20 02:55:44;;;;;;;4.13;0.60;;;13.20;93.90;;;;;;5029222;28;20422;-76
2021/05/20 02:58:09;;;;;;;0.60;0.60;;;13.20;93.90;;;;;;5024915;28;20216;-76
2021/05/20 03:00:37;;;;;;;0.65;0.65;;;13.20;94.30;;;;;;5028130;28;20225;-76
2021/05/20 03:03:04;;;;;;;0.70;0.70;;;13.10;94.30;;;;;;5026322;28;20665;-76
2021/05/20 03:05:30;;;;;;;0.50;0.50;;;13.10;94.20;;;;;;5030058;28;20188;-76
2021/05/20 03:07:56;;;;;;;2.47;0.93;;;13.10;94.00;;;;;;5027985;28;20184;-74
2021/05/20 03:10:22;;;;;;;1.02;0.93;;;13.20;94.10;;;;;;5028801;28;20191;-77
2021/05/20 03:12:48;;;;;;;0.73;0.50;;;13.20;93.90;;;;;;5024475;28;20804;-76
2021/05/20 03:15:14;;;;;;;1.70;0.80;;;13.20;94.20;;;;;;5029523;28;20749;-76
2021/05/20 03:17:40;;;;;;;0.60;0.60;;;13.20;93.70;;;;;;5028008;28;20216;-77
2021/05/20 03:20:07;;;;;;;1.95;0.55;;;13.30;94.10;;;;;;5029721;28;20218;-77
2021/05/20 03:22:33;;;;;;;0.80;0.80;;;13.30;93.90;;;;;;5027076;28;20181;-77
2021/05/20 03:24:59;;;;;;;2.47;0.70;;;13.40;93.90;;;;;;5024811;28;20834;-77
2021/05/20 03:27:25;;;;;;;3.35;0.95;;;13.40;93.70;;;;;;5026455;28;20319;-76
2021/05/20 03:29:50;;;;;;;0.95;0.77;;;13.40;94.10;;;;;;5024828;28;20189;-76
2021/05/20 03:32:16;;;;;;;2.80;0.93;;;13.40;94.20;;;;;;5028538;28;20184;-77
2021/05/20 03:34:42;;;;;;;1.65;0.63;;;13.30;94.40;;;;;;5027482;28;20180;-76
2021/05/20 03:37:08;;;;;;;1.05;1.02;;;13.30;94.40;;;;;;5027406;28;20293;-77
2021/05/20 03:39:34;;;;;;;2.05;0.88;;;13.30;94.80;;;;;;5023021;28;20184;-76
2021/05/20 03:42:01;;;;;;;0.70;0.52;;;13.20;95.00;;;;;;5021315;28;20904;-77
2021/05/20 03:44:27;;;;;;;0.60;0.60;;;13.20;95.20;;;;;;5027227;28;20191;-77
2021/05/20 03:46:53;;;;;;;1.27;0.85;;;13.10;95.40;;;;;;5029160;28;20176;-76
2021/05/20 03:49:18;;;;;;;0.60;0.60;;;13.00;96.10;;;;;;5028127;28;20180;-76
2021/05/20 03:51:44;;;;;;;0.50;0.50;;;12.80;96.30;;;;;;5027639;28;20188;-77
2021/05/20 03:54:10;;;;;;;0.63;0.63;;;12.70;97.30;;;;;;5026379;28;20355;-74
2021/05/20 03:56:36;;;;;;;2.42;0.40;;;12.50;98.20;;;;;;5028411;28;20598;-74
2021/05/20 03:59:02;;;;;;;0.55;0.55;;;12.50;98.10;;;;;;5026527;28;20273;-74
2021/05/20 04:01:27;;;;;;;0.47;0.47;;;12.40;98.20;;;;;;5026790;28;20181;-75
2021/05/20 04:03:53;;;;;;;0.50;0.50;;;12.40;98.40;;;;;;5026403;28;20192;-75
2021/05/20 04:06:19;;;;;;;1.15;0.47;;;12.40;98.50;;;;;;5028108;28;20353;-75
2021/05/20 04:08:44;;;;;;;0.50;0.50;;;12.40;98.50;;;;;;5026661;28;20232;-74
2021/05/20 04:11:10;;;;;;;0.50;0.50;;;12.40;98.20;;;;;;5026539;28;20572;-75
2021/05/20 04:13:38;;;;;;;0.60;0.60;;;12.40;98.20;;;;;;5022044;28;20252;-75
2021/05/20 04:16:05;;;;;;;0.50;0.50;;;12.40;98.20;;;;;;5027576;28;20176;-75
2021/05/20 04:18:32;;;;;;;0.60;0.60;;;12.40;98.10;;;;;;5019530;28;20232;-75
2021/05/20 04:20:58;;;;;;;0.40;0.40;;;12.40;98.20;;;;;;5023485;28;20318;-75
2021/05/20 04:23:23;;;;;;;0.47;0.47;;;12.40;97.90;;;;;;5026207;28;20259;-74
2021/05/20 04:25:50;;;;;;;0.63;0.63;;;12.40;98.10;;;;;;5027736;28;20172;-75
2021/05/20 04:28:17;;;;;;;0.50;0.50;;;12.50;97.90;;;;;;5025579;28;20823;-75
2021/05/20 04:30:44;;;;;;;0.90;0.40;;;12.50;97.50;;;;;;5027237;28;20212;-75
2021/05/20 04:33:10;;;;;;;0.70;0.70;;;12.50;97.60;;;;;;5027696;28;20184;-76
2021/05/20 04:35:36;;;;;;;0.60;0.60;;;12.50;97.90;;;;;;5028376;28;20199;-76
2021/05/20 04:38:04;;;;;;;0.70;0.52;;;12.60;97.90;;;;;;5025267;28;20215;-76
2021/05/20 04:40:31;;;;;;;4.80;0.80;;;12.60;97.90;;;;;;5018445;28;20323;-77
2021/05/20 04:42:56;;;;;;;1.10;0.55;;;12.70;97.40;;;;;;5024153;28;20192;-76
2021/05/20 04:45:22;;;;;;;0.52;0.52;;;12.60;96.60;;;;;;5026324;28;20879;-75
2021/05/20 04:47:49;;;;;;;1.25;0.60;;;12.60;96.40;;;;;;5024803;28;20192;-69
2021/05/20 04:50:16;;;;;;;1.13;0.70;;;12.70;96.60;;;;;;5026122;28;20254;-72
2021/05/20 04:52:43;;;;;;;0.60;0.60;;;12.70;96.70;;;;;;5023887;28;20184;-71
2021/05/20 04:55:09;;;;;;;0.63;0.63;;;12.80;96.60;;;;;;5026878;28;20191;-72
2021/05/20 04:57:35;;;;;;;0.50;0.50;;;12.80;95.80;;;;;;5023892;28;20578;-72
2021/05/20 05:00:03;;;;;;;0.38;0.38;;;12.80;95.50;;;;;;5025704;28;20191;-70
2021/05/20 05:02:28;;;;;;;0.30;0.30;;;12.80;95.20;;;;;;5023000;28;20188;-70
2021/05/20 05:04:54;;;;;;;0.30;0.30;;;12.90;95.40;;;;;;5026417;28;20203;-71
2021/05/20 05:07:20;;;;;;;0.43;0.40;;;13.00;95.30;;;;;;5018722;28;20315;-71
2021/05/20 05:09:45;;;;;;;0.50;0.50;;;13.00;95.30;;;;;;5019883;28;20184;-71
2021/05/20 05:12:11;;;;;;;0.40;0.40;;;13.10;95.50;;;;;;5025198;28;20222;-71
2021/05/20 05:14:37;;;;;;;0.47;0.40;;;13.10;94.90;;;;;;5024617;28;20299;-70
2021/05/20 05:17:03;;;;;;;0.57;0.57;;;13.10;94.70;;;;;;5028258;28;20188;-71
2021/05/20 05:19:28;;;;;;;0.35;0.28;;;13.10;94.40;;;;;;5027527;28;20271;-71
2021/05/20 05:21:54;;;;;;;0.40;0.40;;;13.10;94.60;;;;;;5023458;28;20648;-71
2021/05/20 05:24:20;;;;;;;0.40;0.40;;;13.10;95.00;;;;;;5028010;28;20192;-72
2021/05/20 05:26:45;;;;;;;0.30;0.30;;;13.10;94.80;;;;;;5028923;28;20177;-71
2021/05/20 05:29:11;;;;;;;0.20;0.20;;;13.10;94.30;;;;;;5026014;28;20186;-70
2021/05/20 05:31:37;;;;;;;0.28;0.28;;;13.10;94.10;;;;;;5026321;28;20620;-70
2021/05/20 05:34:06;;;;;;;0.20;0.20;;;13.00;93.90;;;;;;5026224;28;20184;-74
2021/05/20 05:36:32;;;;;;;0.28;0.28;;;12.90;93.60;;;;;;5028985;28;20180;-74
2021/05/20 05:38:58;;;;;;;0.30;0.28;;;12.90;94.30;;;;;;5027467;28;20671;-74
2021/05/20 05:41:24;;;;;;;0.30;0.30;;;12.80;94.00;;;;;;5033844;28;20168;-75
2021/05/20 05:43:50;;;;;;;0.20;0.20;;;12.70;94.40;;;;;;5031973;28;20195;-73
2021/05/20 05:46:16;;;;;;;1.63;0.22;;;12.70;94.80;;;;;;5034889;28;20185;-73
2021/05/20 05:48:41;;;;;;;0.35;0.20;;;12.60;95.10;;;;;;5030179;28;20578;-71
2021/05/20 05:51:11;;;;;;;0.30;0.30;;;12.60;94.60;;;;;;5034093;28;20265;-72
2021/05/20 05:53:37;;;;;;;0.10;0.10;;;12.50;94.40;;;;;;5024482;28;20181;-72
2021/05/20 05:56:04;;;;;;;0.20;0.20;;;12.40;93.50;;;;;;5030594;28;20203;-73
2021/05/20 05:58:29;;;;;;;0.20;0.20;;;12.30;93.00;;;;;;5028549;28;20212;-73
2021/05/20 06:00:55;;;;;;;0.17;0.17;;;12.20;93.30;;;;;;5029813;28;20202;-76
2021/05/20 06:03:23;;;;;;;0.15;0.15;;;12.10;93.70;;;;;;5032681;28;20171;-72
2021/05/20 06:05:49;;;;;;;0.10;0.10;;;12.00;93.30;;;;;;5037967;28;20237;-72
2021/05/20 06:08:15;;;;;;;0.40;0.40;;;12.00;93.30;;;;;;5030407;28;20291;-73
2021/05/20 06:10:42;;;;;;;0.85;0.20;;;11.80;93.80;;;;;;5026417;28;20661;-73
2021/05/20 06:13:07;;;;;;;0.20;0.20;;;11.70;94.70;;;;;;5034316;28;20685;-72
2021/05/20 06:16:13;;;;;;;0.25;0.25;;;11.50;95.30;;;;;;5068850;27;20689;-73
2021/05/20 06:18:39;;;;;;;0.30;0.30;;;11.40;96.00;;;;;;5067785;28;20182;-73
2021/05/20 06:21:05;;;;;;;0.20;0.20;;;11.20;96.30;;;;;;5067859;28;20189;-73
2021/05/20 06:23:31;;;;;;;12.57;0.60;;;11.20;96.30;;;;;;5074276;28;20265;-73
2021/05/20 06:25:56;;;;;;;0.20;0.20;;;11.10;96.40;;;;;;5068978;28;20205;-71
2021/05/20 06:28:23;;;;;;;0.20;0.20;;;11.10;96.70;;;;;;5069128;28;20184;-73
2021/05/20 06:30:49;;;;;;;0.10;0.10;;;11.10;96.00;;;;;;5072191;28;20183;-72
2021/05/20 06:33:16;;;;;;;0.28;0.28;;;11.10;95.50;;;;;;5064575;28;20187;-73
2021/05/20 06:35:41;;;;;;;0.10;0.10;;;11.00;95.20;;;;;;5060431;28;20202;-74
2021/05/20 06:38:07;;;;;;;0.30;0.30;;;11.00;95.20;;;;;;5071249;28;20363;-73
2021/05/20 06:40:33;;;;;;;0.28;0.28;;;11.00;95.30;;;;;;5062207;28;20226;-73
2021/05/20 06:42:59;;;;;;;0.20;0.20;;;11.00;95.40;;;;;;5061096;28;20190;-75
2021/05/20 06:45:24;;;;;;;0.20;0.20;;;11.00;94.40;;;;;;5061951;28;20187;-75
2021/05/20 06:47:54;;;;;;;0.35;0.35;;;11.00;94.50;;;;;;5066561;28;20184;-74
2021/05/20 06:50:20;;;;;;;0.22;0.22;;;11.10;94.50;;;;;;5063721;28;20191;-73
2021/05/20 06:52:46;;;;;;;0.30;0.30;;;11.20;95.00;;;;;;5061836;28;20746;-73
2021/05/20 06:55:12;;;;;;;0.35;0.35;;;11.30;94.70;;;;;;5062475;28;20202;-72
2021/05/20 07:00:22;;;;;;;0.17;0.17;;;11.30;94.30;;;;;;5063089;28;20611;-73
2021/05/20 07:02:48;;;;;;;0.17;0.17;;;11.30;93.70;;;;;;5061890;28;20179;-73
2021/05/20 07:05:14;;;;;;;0.17;0.17;;;11.40;94.00;;;;;;5064011;28;20221;-73
2021/05/20 07:07:39;;;;;;;0.20;0.20;;;11.50;93.10;;;;;;5064107;28;20184;-71
2021/05/20 07:10:06;;;;;;;0.10;0.10;;;11.60;93.30;;;;;;5062669;28;20550;-72
2021/05/20 07:12:32;;;;;;;0.00;0.00;;;11.70;92.20;;;;;;5063000;28;21319;-74
2021/05/20 07:14:58;;;;;;;0.10;0.10;;;11.70;91.70;;;;;;5092132;28;20310;-75
2021/05/20 07:17:24;;;;;;;0.20;0.20;;;11.80;91.60;;;;;;5063441;28;20550;-73
2021/05/20 07:19:50;;;;;;;0.17;0.17;;;12.00;92.10;;;;;;5062529;28;20186;-73
2021/05/20 07:22:16;;;;;;;0.17;0.15;;;12.00;90.40;;;;;;5060530;28;20210;-73
2021/05/20 07:24:43;;;;;;;0.10;0.10;;;12.10;91.30;;;;;;5062319;28;20657;-73
2021/05/20 07:27:09;;;;;;;0.20;0.20;;;12.30;91.50;;;;;;5051081;28;20278;-73
2021/05/20 07:29:34;;;;;;;0.20;0.20;;;12.40;91.20;;;;;;5048590;28;20266;-73
2021/05/20 07:32:00;;;;;;;0.15;0.15;;;12.50;89.20;;;;;;5045908;28;20286;-73
2021/05/20 07:34:26;;;;;;;0.10;0.10;;;12.60;89.50;;;;;;5044982;28;20214;-72
2021/05/20 07:36:52;;;;;;;0.20;0.20;;;12.70;88.90;;;;;;5046610;28;20187;-72
2021/05/20 07:39:18;;;;;;;0.10;0.10;;;12.80;89.10;;;;;;5045538;28;20183;-73
2021/05/20 07:41:45;;;;;;;0.10;0.10;;;12.90;88.70;;;;;;5048636;28;20266;-74
2021/05/20 07:44:10;;;;;;;0.10;0.10;;;12.90;87.90;;;;;;5042807;28;20593;-73
2021/05/20 07:46:36;;;;;;;0.10;0.10;;;12.90;87.70;;;;;;5043071;28;20214;-74
2021/05/20 07:49:02;;;;;;;0.10;0.10;;;12.90;87.30;;;;;;5047971;28;20261;-74
2021/05/20 07:51:28;;;;;;;0.10;0.10;;;12.80;86.80;;;;;;5045622;28;20183;-73
2021/05/20 07:53:53;;;;;;;0.10;0.10;;;12.80;86.60;;;;;;5046439;28;20606;-73
2021/05/20 07:56:19;;;;;;;0.10;0.10;;;12.80;86.80;;;;;;5048203;28;20577;-72
2021/05/20 07:58:46;;;;;;;0.20;0.20;;;12.80;87.10;;;;;;5044718;28;20187;-74
2021/05/20 08:01:13;;;;;;;0.10;0.10;;;12.70;87.50;;;;;;5048626;28;20214;-73
2021/05/20 08:03:46;;;;;;;0.20;0.20;;;12.70;87.20;;;;;;5045534;28;20744;-73
2021/05/20 08:06:15;;;;;;;0.10;0.10;;;12.60;86.30;;;;;;5046276;28;20249;-74
2021/05/20 08:09:00;;;;;;;0.10;0.10;;;12.70;85.80;;;;;;5043936;28;20610;-73
2021/05/20 08:11:26;;;;;;;0.10;0.10;;;12.80;85.50;;;;;;5047467;28;20201;-73
2021/05/20 08:13:52;;;;;;;0.20;0.20;;;12.80;85.70;;;;;;5044080;28;20171;-72
2021/05/20 08:16:19;;;;;;;0.20;0.20;;;12.90;85.90;;;;;;5043884;28;20183;-73
2021/05/20 08:18:45;;;;;;;0.20;0.20;;;12.90;85.50;;;;;;5044263;28;20203;-72
2021/05/20 08:21:11;;;;;;;0.20;0.20;;;13.00;85.30;;;;;;5050630;28;20206;-72
2021/05/20 08:23:37;;;;;;;0.10;0.10;;;13.10;84.40;;;;;;5048888;28;20179;-74
2021/05/20 08:26:04;;;;;;;0.10;0.10;;;13.10;83.70;;;;;;5049308;28;20179;-74
2021/05/20 08:28:30;;;;;;;0.20;0.10;;;13.10;82.50;;;;;;5048730;28;21155;-73
2021/05/20 08:30:56;;;;;;;0.13;0.13;;;13.20;82.70;;;;;;5045068;28;20172;-72
2021/05/20 08:33:22;;;;;;;1.38;0.20;;;13.40;83.00;;;;;;5046570;28;20171;-73
2021/05/20 08:35:48;;;;;;;0.15;0.15;;;13.50;83.10;;;;;;5044173;28;20822;-73
2021/05/20 08:38:14;;;;;;;0.10;0.10;;;13.60;81.70;;;;;;5039854;28;21017;-74
2021/05/20 08:40:42;;;;;;;0.10;0.10;;;13.60;81.20;;;;;;5038693;28;20183;-73
2021/05/20 08:43:08;;;;;;;0.10;0.10;;;13.60;81.30;;;;;;5047488;28;20189;-72
2021/05/20 08:45:34;;;;;;;1.30;0.20;;;13.70;81.00;;;;;;5046464;28;20560;-73
2021/05/20 08:48:01;;;;;;;0.17;0.17;;;13.70;79.70;;;;;;5046524;28;20180;-72
2021/05/20 08:50:29;;;;;;;0.20;0.20;;;13.60;79.60;;;;;;5044843;28;20180;-73
2021/05/20 08:52:55;;;;;;;1.33;0.17;;;13.60;80.10;;;;;;5047118;28;20190;-75
2021/05/20 08:55:24;;;;;;;0.10;0.10;;;13.80;80.30;;;;;;5042693;28;20207;-72
2021/05/20 08:57:50;;;;;;;0.13;0.13;;;14.00;79.20;;;;;;5043283;28;20258;-72
2021/05/20 09:00:21;;;;;;;0.17;0.15;;;14.10;78.00;;;;;;5046549;28;20270;-74
2021/05/20 09:02:47;;;;;;;0.55;0.30;;;14.30;78.50;;;;;;5048629;28;20210;-73
2021/05/20 09:05:21;;;;;;;0.13;0.13;;;14.50;78.10;;;;;;5048286;28;20191;-74
2021/05/20 09:07:57;;;;;;;2.65;0.20;;;14.90;78.40;;;;;;5048098;28;20187;-73
2021/05/20 09:10:25;;;;;;;0.20;0.20;;;15.20;76.50;;;;;;5049140;28;20175;-75
2021/05/20 09:13:13;;;;;;;0.10;0.10;;;15.30;75.60;;;;;;5045601;28;20833;-74
2021/05/20 09:15:45;;;;;;;0.13;0.13;;;15.60;75.40;;;;;;5045693;28;20215;-74
2021/05/20 09:18:18;;;;;;;0.10;0.10;;;15.70;74.80;;;;;;5046770;28;20262;-74
2021/05/20 09:21:06;;;;;;;0.20;0.20;;;15.80;74.30;;;;;;5044217;28;20275;-74
2021/05/20 09:23:32;;;;;;;3.13;0.10;;;16.10;74.70;;;;;;5048027;28;20241;-73
2021/05/20 09:26:06;;;;;;;0.10;0.10;;;16.40;73.60;;;;;;5049197;28;20179;-74
2021/05/20 09:28:40;;;;;;;0.10;0.10;;;16.70;72.90;;;;;;5046111;28;20228;-74
2021/05/20 09:31:07;;;;;;;0.10;0.10;;;16.90;72.20;;;;;;5045968;28;20267;-74
2021/05/20 09:33:33;;;;;;;0.10;0.10;;;17.10;71.90;;;;;;5047400;28;20264;-74
2021/05/20 09:35:58;;;;;;;0.28;0.03;;;17.20;71.30;;;;;;5047384;28;20310;-74
2021/05/20 09:38:26;;;;;;;0.43;0.15;;;17.30;71.30;;;;;;5048084;28;20240;-74
2021/05/20 09:41:01;;;;;;;0.10;0.10;;;17.50;70.90;;;;;;5042875;28;20175;-74
2021/05/20 09:43:32;;;;;;;0.10;0.10;;;17.60;70.50;;;;;;5043617;28;20176;-74
2021/05/20 09:46:00;;;;;;;0.10;0.10;;;17.60;69.90;;;;;;5044837;28;20668;-74
2021/05/20 09:48:32;;;;;;;1.23;0.10;;;17.50;70.00;;;;;;5047641;28;20262;-76
2021/05/20 09:50:58;;;;;;;0.57;0.10;;;17.40;70.20;;;;;;5048693;28;20240;-74
2021/05/20 09:53:26;;;;;;;0.88;0.20;;;17.30;70.90;;;;;;5043655;28;20202;-72
2021/05/20 09:56:01;;;;;;;0.85;0.30;;;17.30;70.90;;;;;;5047295;28;20707;-72
2021/05/20 09:58:32;;;;;;;0.13;0.13;;;17.40;70.90;;;;;;5041395;28;20198;-72
2021/05/20 10:01:03;;;;;;;0.10;0.10;;;17.30;70.80;;;;;;5047802;28;20190;-72
2021/05/20 10:03:29;;;;;;;0.20;0.20;;;17.10;69.90;;;;;;5045856;28;20249;-71
2021/05/20 10:05:59;;;;;;;0.22;0.22;;;16.90;70.60;;;;;;5053425;28;20420;-71
2021/05/20 10:08:26;;;;;;;0.20;0.20;;;16.90;70.90;;;;;;5049750;28;20729;-71
2021/05/20 10:10:56;;;;;;;0.45;0.30;;;16.90;71.00;;;;;;5045515;28;20172;-69
2021/05/20 10:13:24;;;;;;;0.30;0.30;;;16.90;70.90;;;;;;5056660;28;20253;-70
2021/05/20 10:15:50;;;;;;;0.20;0.20;;;16.80;71.60;;;;;;5044857;28;20239;-73
2021/05/20 10:18:20;;;;;;;0.63;0.25;;;16.60;71.30;;;;;;5046014;28;20223;-73
2021/05/20 10:20:49;;;;;;;0.28;0.28;;;16.50;71.70;;;;;;5046610;28;20258;-73
2021/05/20 10:23:25;;;;;;;1.00;0.30;;;16.40;71.70;;;;;;5045012;28;20187;-73
2021/05/20 10:25:53;;;;;;;0.30;0.30;;;16.40;72.10;;;;;;5044299;28;20190;-72
2021/05/20 10:28:20;;;;;;;0.43;0.38;;;16.70;72.60;;;;;;5043587;28;20556;-70
2021/05/20 10:30:51;;;;;;;0.30;0.30;;;17.40;72.90;;;;;;5045158;28;20646;-72
2021/05/20 10:33:23;;;;;;;0.30;0.30;;;18.20;69.10;;;;;;5048331;28;20183;-72
2021/05/20 10:35:52;;;;;;;0.55;0.30;;;19.50;68.20;;;;;;5041864;28;20238;-71
2021/05/20 10:38:17;;;;;;;0.30;0.30;;;20.60;67.10;;;;;;5046314;28;20270;-70
2021/05/20 10:40:43;;;;;;;0.22;0.22;;;21.70;64.60;;;;;;5054736;28;20254;-71
2021/05/20 10:43:18;;;;;;;0.30;0.30;;;22.40;62.90;;;;;;5047172;28;20798;-71
2021/05/20 10:46:01;;;;;;;0.40;0.40;;;22.60;61.50;;;;;;5045115;28;20187;-71
2021/05/20 10:48:28;;;;;;;1.05;0.40;;;22.50;60.80;;;;;;5047047;28;20184;-68
2021/05/20 10:50:55;;;;;;;0.40;0.40;;;22.00;60.40;;;;;;5043042;28;20215;-69
2021/05/20 10:53:44;;;;;;;0.40;0.40;;;21.30;60.30;;;;;;5047878;28;20176;-69
2021/05/20 10:56:22;;;;;;;0.38;0.38;;;20.60;62.10;;;;;;5045056;28;20290;-69
2021/05/20 10:58:48;;;;;;;1.48;0.50;;;20.10;64.10;;;;;;5045744;28;20213;-68
2021/05/20 11:01:20;;;;;;;0.50;0.50;;;19.80;65.70;;;;;;5046949;28;20168;-69
2021/05/20 11:03:52;;;;;;;1.25;1.25;;;19.60;65.50;;;;;;5051843;28;21053;-69
2021/05/20 11:06:20;;;;;;;1.33;1.33;;;19.60;65.40;;;;;;5055528;28;20672;-69
2021/05/20 11:08:45;;;;;;;0.80;0.80;;;19.80;66.30;;;;;;5050133;28;20187;-69
2021/05/20 11:11:29;;;;;;;0.50;0.50;;;20.00;65.60;;;;;;5048636;28;20183;-69
2021/05/20 11:13:56;;;;;;;3.40;0.70;;;20.60;65.30;;;;;;5048560;28;20179;-69
2021/05/20 11:16:35;;;;;;;0.70;0.70;;;21.50;64.60;;;;;;5049329;28;20194;-69
2021/05/20 11:19:26;;;;;;;0.40;0.40;;;22.80;61.90;;;;;;5048568;28;20191;-69
2021/05/20 11:24:31;;;;;;;0.80;0.80;;;25.20;57.40;;;;;;5048517;28;20221;-69
2021/05/20 11:27:01;;;;;;;0.47;0.47;;;25.70;55.60;;;;;;5047540;28;20183;-69
2021/05/20 11:29:29;;;;;;;0.38;0.38;;;26.30;56.20;;;;;;5046769;28;20198;-70
2021/05/20 11:32:12;;;;;;;2.28;0.50;;;27.00;55.00;;;;;;5047114;28;20183;-68
2021/05/20 11:37:07;;;;;;;1.10;0.50;;;27.30;53.70;;;;;;5047223;28;20573;-70
2021/05/20 11:39:33;;;;;;;0.40;0.40;;;27.40;52.90;;;;;;5047209;28;20171;-70
2021/05/20 11:42:01;;;;;;;0.40;0.40;;;27.90;52.90;;;;;;5047128;28;20175;-69
2021/05/20 11:44:27;;;;;;;0.50;0.50;;;28.40;51.90;;;;;;5047011;28;20207;-70
2021/05/20 11:47:04;;;;;;;0.32;0.32;;;29.00;51.20;;;;;;5050154;28;20172;-70
2021/05/20 11:49:30;;;;;;;0.40;0.40;;;28.60;51.50;;;;;;5050100;28;20218;-69
2021/05/20 11:51:57;;;;;;;0.40;0.40;;;27.80;52.00;;;;;;5049564;28;20691;-70
2021/05/20 11:54:29;;;;;;;0.40;0.40;;;27.50;52.70;;;;;;5049929;28;20269;-69
2021/05/20 11:56:57;;;;;;;0.30;0.30;;;27.80;51.20;;;;;;5048163;28;20219;-70
2021/05/20 11:59:38;;;;;;;0.65;0.30;;;27.90;50.30;;;;;;5049279;28;20182;-71
2021/05/20 12:02:18;;;;;;;0.50;0.50;;;27.50;51.00;;;;;;5043664;28;20209;-70
2021/05/20 12:04:44;;;;;;;0.50;0.50;;;26.80;51.80;;;;;;5045828;28;20246;-70
2021/05/20 12:07:22;;;;;;;0.73;0.40;;;25.90;53.30;;;;;;5049279;28;20276;-70
2021/05/20 12:09:47;;;;;;;0.40;0.40;;;24.90;54.10;;;;;;5047965;28;20180;-70
2021/05/20 12:12:16;;;;;;;0.40;0.40;;;24.00;55.10;;;;;;5048370;28;20249;-68
2021/05/20 12:14:42;;;;;;;0.38;0.38;;;23.50;57.20;;;;;;5048990;28;20222;-69
2021/05/20 12:17:11;;;;;;;0.50;0.50;;;22.90;58.60;;;;;;5048358;28;20202;-69
2021/05/20 12:19:42;;;;;;;1.27;0.80;;;22.60;59.50;;;;;;5047743;28;20240;-69
2021/05/20 12:22:11;;;;;;;0.50;0.50;;;22.40;60.00;;;;;;5046729;28;20180;-70
2021/05/20 12:24:46;;;;;;;0.50;0.50;;;22.60;60.00;;;;;;5050002;28;20290;-69
2021/05/20 12:27:13;;;;;;;0.50;0.40;;;23.10;60.20;;;;;;5049797;28;20883;-71
2021/05/20 12:29:44;;;;;;;0.40;0.40;;;23.50;58.40;;;;;;5046761;28;20235;-71
2021/05/20 12:32:34;;;;;;;0.50;0.50;;;23.90;58.30;;;;;;5046375;28;20184;-71
2021/05/20 12:35:18;;;;;;;0.43;0.43;;;24.80;57.10;;;;;;5040466;28;20286;-71
2021/05/20 12:37:45;;;;;;;0.38;0.38;;;25.70;55.80;;;;;;5043540;28;20190;-70
2021/05/20 12:40:15;;;;;;;0.47;0.47;;;25.60;55.20;;;;;;5055086;28;20184;-70
2021/05/20 12:42:41;;;;;;;3.42;0.60;;;25.20;56.20;;;;;;5049246;28;20578;-71
2021/05/20 12:45:09;;;;;;;0.47;0.47;;;24.80;57.10;;;;;;5053791;28;20191;-71
2021/05/20 12:47:50;;;;;;;0.52;0.52;;;24.30;56.20;;;;;;5049425;28;20187;-71
2021/05/20 12:50:45;;;;;;;0.40;0.40;;;23.90;56.70;;;;;;5046376;28;20184;-70
2021/05/20 12:53:10;;;;;;;0.40;0.40;;;23.90;57.00;;;;;;5000303;28;20197;-69
2021/05/20 12:55:41;;;;;;;0.40;0.40;;;24.30;56.80;;;;;;5003670;28;20214;-70
2021/05/20 12:58:08;;;;;;;1.83;0.40;;;24.40;56.20;;;;;;4997980;28;20197;-71